createdAt,value
2019-03-23T00:01:02.334Z,1.83
2019-03-23T00:03:31.224Z,1.80
2019-03-23T00:06:00.292Z,1.90
2019-03-23T00:08:29.215Z,1.87
2019-03-23T00:10:58.099Z,1.60
2019-03-23T00:13:27.921Z,1.97
2019-03-23T00:15:56.847Z,1.83
2019-03-23T00:18:25.758Z,1.60
2019-03-23T00:20:54.678Z,1.67
2019-03-23T00:23:23.589Z,1.60
2019-03-23T00:25:52.494Z,1.63
2019-03-23T00:28:21.391Z,2.17
2019-03-23T00:30:50.253Z,1.40
2019-03-23T00:33:19.125Z,1.63
2019-03-23T00:35:47.976Z,1.87
2019-03-23T00:38:17.006Z,1.33
2019-03-23T00:40:45.874Z,1.60
2019-03-23T00:43:14.740Z,1.53
2019-03-23T00:45:43.621Z,1.87
2019-03-23T00:48:12.470Z,1.33
2019-03-23T00:50:41.331Z,1.60
2019-03-23T00:53:10.209Z,1.30
2019-03-23T00:55:38.996Z,1.47
2019-03-23T00:58:07.862Z,1.33
2019-03-23T01:00:36.738Z,1.30
2019-03-23T01:03:05.599Z,1.50
2019-03-23T01:05:35.381Z,1.40
2019-03-23T01:08:04.268Z,1.30
2019-03-23T01:10:33.167Z,1.70
2019-03-23T01:13:02.025Z,1.53
2019-03-23T01:15:30.818Z,1.60
2019-03-23T01:17:59.713Z,1.40
2019-03-23T01:20:28.574Z,1.50
2019-03-23T01:22:57.831Z,1.50
2019-03-23T01:25:26.699Z,2.00
2019-03-23T01:27:55.570Z,1.47
2019-03-23T01:30:24.439Z,1.60
2019-03-23T01:32:53.298Z,1.30
2019-03-23T01:35:22.162Z,1.50
2019-03-23T01:37:51.041Z,1.40
2019-03-23T01:40:19.840Z,1.53
2019-03-23T01:42:48.699Z,1.40
2019-03-23T01:45:17.587Z,1.57
2019-03-23T01:47:46.453Z,1.60
2019-03-23T01:50:15.314Z,1.20
2019-03-23T01:52:45.219Z,2.10
2019-03-23T01:55:14.084Z,1.40
2019-03-23T01:57:42.946Z,1.57
2019-03-23T02:00:13.380Z,1.30
2019-03-23T02:02:42.249Z,1.40
2019-03-23T02:05:11.109Z,1.53
2019-03-23T02:07:40.005Z,1.50
2019-03-23T02:10:10.504Z,1.90
2019-03-23T02:12:39.362Z,1.33
2019-03-23T02:15:10.577Z,1.53
2019-03-23T02:17:39.435Z,1.50
2019-03-23T02:20:10.329Z,1.43
2019-03-23T02:22:39.264Z,1.80
2019-03-23T02:25:08.804Z,1.40
2019-03-23T02:27:37.670Z,2.03
2019-03-23T02:30:09.432Z,1.77
2019-03-23T02:32:38.296Z,1.20
2019-03-23T02:35:07.799Z,1.30
2019-03-23T02:37:36.679Z,1.60
2019-03-23T02:40:09.809Z,1.57
2019-03-23T02:42:38.695Z,1.60
2019-03-23T02:45:11.650Z,1.57
2019-03-23T02:47:40.547Z,2.03
2019-03-23T02:50:10.132Z,1.50
2019-03-23T02:52:39.000Z,1.53
2019-03-23T02:55:09.003Z,1.50
2019-03-23T02:57:37.878Z,1.30
2019-03-23T03:00:14.112Z,1.80
2019-03-23T03:02:43.002Z,1.57
2019-03-23T03:05:11.859Z,1.70
2019-03-23T03:07:42.959Z,1.50
2019-03-23T03:10:12.471Z,1.57
2019-03-23T03:12:41.337Z,1.63
2019-03-23T03:15:10.221Z,1.60
2019-03-23T03:17:39.095Z,1.60
2019-03-23T03:20:09.714Z,1.40
2019-03-23T03:22:38.742Z,1.37
2019-03-23T03:25:07.883Z,1.47
2019-03-23T03:27:36.781Z,1.43
2019-03-23T03:30:06.999Z,1.50
2019-03-23T03:32:35.847Z,1.60
2019-03-23T03:35:05.561Z,1.40
2019-03-23T03:37:34.443Z,1.40
2019-03-23T03:40:04.071Z,2.00
2019-03-23T03:42:32.953Z,1.53
2019-03-23T03:45:01.853Z,1.60
2019-03-23T03:47:30.725Z,1.40
2019-03-23T03:49:59.578Z,1.60
2019-03-23T03:52:28.490Z,1.43
2019-03-23T03:54:57.326Z,1.60
2019-03-23T03:57:26.190Z,1.30
2019-03-23T03:59:55.007Z,1.50
2019-03-23T04:02:23.877Z,1.50
2019-03-23T04:04:52.740Z,1.50
2019-03-23T04:07:23.530Z,1.27
2019-03-23T04:09:52.400Z,1.60
2019-03-23T04:12:21.265Z,1.10
2019-03-23T04:14:50.131Z,1.63
2019-03-23T04:17:18.999Z,1.37
2019-03-23T04:19:47.863Z,1.40
2019-03-23T04:22:16.795Z,1.37
2019-03-23T04:24:45.979Z,1.43
2019-03-23T04:27:14.835Z,1.37
2019-03-23T04:29:43.724Z,1.43
2019-03-23T04:32:12.584Z,1.40
2019-03-23T04:34:41.459Z,1.30
2019-03-23T04:37:10.376Z,1.53
2019-03-23T04:39:39.231Z,1.00
2019-03-23T04:42:08.089Z,1.33
2019-03-23T04:44:36.983Z,1.23
2019-03-23T04:47:05.839Z,1.50
2019-03-23T04:49:34.715Z,1.33
2019-03-23T04:52:03.603Z,1.40
2019-03-23T04:54:32.485Z,1.47
2019-03-23T04:57:01.274Z,1.27
2019-03-23T04:59:30.166Z,1.27
2019-03-23T05:01:59.046Z,1.37
2019-03-23T05:04:27.900Z,1.53
2019-03-23T05:06:57.686Z,0.90
2019-03-23T05:09:26.483Z,1.20
2019-03-23T05:11:55.345Z,1.20
2019-03-23T05:14:24.233Z,1.10
2019-03-23T05:16:53.024Z,1.20
2019-03-23T05:19:21.954Z,1.20
2019-03-23T05:21:50.841Z,1.23
2019-03-23T05:24:19.723Z,0.90
2019-03-23T05:26:48.591Z,1.40
2019-03-23T05:29:17.477Z,1.50
2019-03-23T05:31:46.346Z,1.10
2019-03-23T05:34:15.208Z,1.13
2019-03-23T05:36:44.098Z,1.53
2019-03-23T05:39:12.965Z,1.50
2019-03-23T05:41:42.778Z,1.30
2019-03-23T05:44:11.630Z,1.13
2019-03-23T05:46:40.486Z,1.30
2019-03-23T05:49:09.346Z,1.10
2019-03-23T05:51:38.238Z,1.10
2019-03-23T05:54:07.303Z,0.90
2019-03-23T05:56:36.196Z,1.00
2019-03-23T05:59:05.076Z,1.00
2019-03-23T06:01:33.930Z,1.30
2019-03-23T06:04:02.765Z,1.20
2019-03-23T06:06:31.606Z,1.03
2019-03-23T06:09:02.084Z,1.20
2019-03-23T06:11:30.952Z,1.10
2019-03-23T06:13:59.826Z,1.13
2019-03-23T06:16:28.692Z,1.23
2019-03-23T06:18:57.573Z,1.07
2019-03-23T06:21:26.466Z,0.93
2019-03-23T06:23:55.322Z,1.17
2019-03-23T06:26:26.186Z,1.00
2019-03-23T06:28:55.059Z,1.17
2019-03-23T06:31:24.043Z,1.37
2019-03-23T06:33:52.927Z,0.87
2019-03-23T06:36:21.791Z,1.00
2019-03-23T06:38:50.655Z,0.80
2019-03-23T06:41:19.544Z,1.07
2019-03-23T06:43:48.786Z,1.10
2019-03-23T06:46:17.641Z,1.10
2019-03-23T06:48:46.519Z,1.03
2019-03-23T06:51:15.379Z,1.97
2019-03-23T06:53:44.244Z,1.20
2019-03-23T06:56:13.144Z,1.57
2019-03-23T06:58:42.014Z,1.03
2019-03-23T07:01:10.882Z,1.60
2019-03-23T07:03:39.779Z,0.90
2019-03-23T07:06:08.634Z,1.00
2019-03-23T07:08:37.507Z,1.07
2019-03-23T07:11:06.544Z,1.30
2019-03-23T07:13:35.405Z,1.13
2019-03-23T07:16:04.262Z,1.37
2019-03-23T07:18:33.444Z,1.40
2019-03-23T07:21:02.302Z,1.00
2019-03-23T07:23:31.163Z,1.10
2019-03-23T07:26:00.054Z,1.47
2019-03-23T07:28:28.910Z,1.40
2019-03-23T07:30:57.770Z,1.50
2019-03-23T07:33:26.658Z,1.50
2019-03-23T07:35:55.514Z,1.33
2019-03-23T07:38:24.372Z,1.17
2019-03-23T07:40:53.265Z,1.60
2019-03-23T07:43:24.044Z,1.60
2019-03-23T07:45:52.903Z,1.40
2019-03-23T07:48:21.795Z,1.07
2019-03-23T07:50:50.654Z,1.53
2019-03-23T07:53:19.525Z,2.10
2019-03-23T07:55:48.666Z,1.27
2019-03-23T07:58:17.582Z,1.70
2019-03-23T08:00:46.449Z,1.67
2019-03-23T08:03:15.322Z,1.70
2019-03-23T08:05:44.195Z,2.13
2019-03-23T08:08:13.058Z,1.77
2019-03-23T08:10:46.096Z,2.23
2019-03-23T08:13:15.004Z,1.73
2019-03-23T08:15:43.856Z,1.80
2019-03-23T08:18:12.743Z,1.97
2019-03-23T08:20:41.602Z,2.00
2019-03-23T08:23:10.500Z,2.10
2019-03-23T08:25:39.361Z,1.73
2019-03-23T08:28:10.058Z,2.10
2019-03-23T08:30:38.947Z,2.27
2019-03-23T08:33:07.900Z,2.03
2019-03-23T08:35:36.785Z,2.23
2019-03-23T08:38:05.642Z,1.97
2019-03-23T08:40:35.799Z,1.97
2019-03-23T08:43:04.803Z,2.57
2019-03-23T08:45:33.671Z,1.57
2019-03-23T08:48:02.565Z,3.00
2019-03-23T08:50:31.459Z,1.80
2019-03-23T08:53:00.347Z,1.90
2019-03-23T08:55:29.219Z,2.03
2019-03-23T08:57:58.078Z,1.93
2019-03-23T09:00:26.945Z,1.90
2019-03-23T09:02:56.767Z,2.20
2019-03-23T09:05:25.647Z,2.10
2019-03-23T09:07:54.514Z,2.53
2019-03-23T09:10:23.407Z,1.80
2019-03-23T09:12:52.258Z,2.00
2019-03-23T09:15:21.159Z,2.03
2019-03-23T09:17:50.033Z,2.73
2019-03-23T09:20:19.001Z,1.93
2019-03-23T09:22:47.790Z,2.07
2019-03-23T09:25:16.742Z,2.67
2019-03-23T09:27:45.602Z,2.00
2019-03-23T09:30:14.788Z,1.50
2019-03-23T09:32:43.671Z,2.10
2019-03-23T09:35:12.569Z,1.97
2019-03-23T09:37:41.433Z,2.40
2019-03-23T09:40:11.390Z,2.27
2019-03-23T09:42:40.381Z,2.37
2019-03-23T09:45:09.184Z,2.40
2019-03-23T09:47:38.096Z,2.63
2019-03-23T09:50:09.227Z,2.20
2019-03-23T09:52:38.090Z,2.53
2019-03-23T09:55:07.525Z,2.30
2019-03-23T09:57:36.389Z,1.90
2019-03-23T10:00:12.268Z,2.50
2019-03-23T10:02:41.146Z,2.33
2019-03-23T10:05:10.032Z,2.27
2019-03-23T10:07:38.930Z,2.63
2019-03-23T10:10:07.872Z,2.70
2019-03-23T10:12:37.650Z,3.10
2019-03-23T10:15:09.198Z,3.20
2019-03-23T10:17:38.075Z,2.90
2019-03-23T10:20:07.313Z,3.70
2019-03-23T10:22:36.211Z,3.13
2019-03-23T10:25:06.694Z,4.00
2019-03-23T10:27:35.577Z,3.57
2019-03-23T10:30:07.561Z,3.70
2019-03-23T10:32:36.432Z,3.63
2019-03-23T10:35:07.251Z,4.27
2019-03-23T10:37:36.147Z,3.70
2019-03-23T10:40:09.583Z,2.73
2019-03-23T10:42:38.463Z,3.80
2019-03-23T10:45:08.211Z,3.90
2019-03-23T10:47:37.330Z,3.87
2019-03-23T10:50:06.339Z,4.37
2019-03-23T10:52:35.226Z,3.63
2019-03-23T10:55:05.942Z,3.77
2019-03-23T10:57:34.809Z,3.70
2019-03-23T11:00:11.720Z,3.27
2019-03-23T11:02:40.589Z,3.43
2019-03-23T11:05:09.499Z,3.20
2019-03-23T11:07:38.390Z,3.43
2019-03-23T11:10:09.772Z,3.80
2019-03-23T11:12:38.631Z,3.50
2019-03-23T11:15:08.856Z,3.40
2019-03-23T11:17:39.617Z,2.50
2019-03-23T11:20:10.535Z,2.70
2019-03-23T11:22:39.549Z,2.97
2019-03-23T11:25:08.421Z,2.67
2019-03-23T11:27:37.278Z,2.17
2019-03-23T11:30:11.574Z,2.63
2019-03-23T11:32:40.447Z,2.33
2019-03-23T11:37:51.856Z,2.87
2019-03-23T11:40:20.779Z,2.53
2019-03-23T11:42:50.543Z,2.30
2019-03-23T11:45:19.530Z,2.43
2019-03-23T11:47:48.412Z,3.30
2019-03-23T11:50:17.291Z,2.97
2019-03-23T11:52:47.178Z,3.13
2019-03-23T11:55:15.994Z,3.30
2019-03-23T11:57:44.849Z,3.33
2019-03-23T12:00:14.872Z,3.17
2019-03-23T12:02:43.759Z,3.33
2019-03-23T12:05:12.633Z,3.13
2019-03-23T12:07:41.513Z,3.37
2019-03-23T12:10:11.425Z,3.70
2019-03-23T12:12:41.211Z,3.83
2019-03-23T12:15:11.534Z,3.67
2019-03-23T12:17:40.407Z,3.70
2019-03-23T12:20:09.281Z,4.20
2019-03-23T12:22:38.177Z,4.60
2019-03-23T12:25:07.050Z,4.13
2019-03-23T12:27:35.908Z,4.37
2019-03-23T12:30:07.814Z,4.17
2019-03-23T12:32:36.697Z,4.43
2019-03-23T12:35:07.337Z,4.33
2019-03-23T12:37:36.234Z,4.70
2019-03-23T12:40:06.466Z,5.10
2019-03-23T12:42:35.655Z,4.50
2019-03-23T12:45:05.486Z,4.83
2019-03-23T12:47:34.359Z,5.20
2019-03-23T12:50:04.109Z,4.27
2019-03-23T12:52:33.007Z,4.83
2019-03-23T12:55:01.882Z,5.10
2019-03-23T12:57:30.737Z,5.10
2019-03-23T12:59:59.626Z,5.13
2019-03-23T13:02:28.518Z,4.83
2019-03-23T13:04:57.381Z,4.13
2019-03-23T13:07:26.267Z,3.83
2019-03-23T13:09:55.188Z,4.10
2019-03-23T13:12:24.046Z,4.13
2019-03-23T13:14:52.939Z,3.80
2019-03-23T13:17:21.805Z,3.77
2019-03-23T13:19:50.611Z,4.33
2019-03-23T13:22:19.502Z,4.63
2019-03-23T13:24:48.378Z,5.53
2019-03-23T13:27:17.238Z,7.37
2019-03-23T13:29:46.112Z,6.43
2019-03-23T13:32:14.979Z,8.10
2019-03-23T13:34:44.313Z,8.83
2019-03-23T13:37:13.200Z,10.47
2019-03-23T13:39:42.078Z,11.07
2019-03-23T13:42:10.954Z,11.40
2019-03-23T13:44:39.851Z,13.53
2019-03-23T13:47:15.594Z,14.23
2019-03-23T13:49:44.243Z,13.93
2019-03-23T13:52:13.019Z,13.27
2019-03-23T13:54:41.955Z,16.37
2019-03-23T13:57:10.842Z,14.93
2019-03-23T13:59:39.718Z,17.73
2019-03-23T14:02:08.608Z,16.43
2019-03-23T14:04:38.282Z,15.03
2019-03-23T14:07:07.149Z,17.30
2019-03-23T14:09:36.034Z,16.67
2019-03-23T14:12:04.923Z,17.70
2019-03-23T14:14:33.807Z,16.70
2019-03-23T14:17:02.687Z,18.40
2019-03-23T14:19:31.591Z,18.70
2019-03-23T14:22:00.398Z,19.90
2019-03-23T14:24:29.269Z,21.13
2019-03-23T14:26:58.174Z,21.07
2019-03-23T14:29:27.050Z,21.03
2019-03-23T14:31:56.002Z,21.23
2019-03-23T14:34:24.919Z,21.43
2019-03-23T14:36:53.817Z,20.67
2019-03-23T14:39:22.665Z,20.63
2019-03-23T14:41:51.562Z,23.17
2019-03-23T14:44:20.443Z,20.07
2019-03-23T14:46:49.314Z,21.60
2019-03-23T14:49:18.194Z,23.73
2019-03-23T14:51:47.070Z,23.50
2019-03-23T14:54:15.964Z,23.00
2019-03-23T14:56:44.767Z,21.77
2019-03-23T14:59:13.704Z,22.77
2019-03-23T15:01:42.618Z,21.37
2019-03-23T15:04:13.414Z,25.30
2019-03-23T15:06:43.920Z,25.10
2019-03-23T15:09:12.809Z,21.27
2019-03-23T15:11:41.690Z,21.20
2019-03-23T15:14:10.563Z,21.60
2019-03-23T15:16:39.482Z,22.67
2019-03-23T15:19:08.339Z,21.53
2019-03-23T15:21:39.134Z,20.50
2019-03-23T15:24:08.043Z,21.77
2019-03-23T15:26:36.935Z,20.70
2019-03-23T15:29:05.803Z,21.17
2019-03-23T15:31:34.711Z,20.87
2019-03-23T15:34:03.604Z,19.43
2019-03-23T15:36:32.487Z,21.20
2019-03-23T15:39:01.406Z,20.90
2019-03-23T15:41:30.269Z,21.37
2019-03-23T15:43:59.146Z,19.37
2019-03-23T15:46:28.055Z,18.90
2019-03-23T15:48:56.930Z,20.97
2019-03-23T15:51:25.807Z,20.30
2019-03-23T15:53:54.687Z,20.03
2019-03-23T15:56:23.562Z,20.40
2019-03-23T15:58:52.458Z,19.87
2019-03-23T16:01:23.225Z,20.17
2019-03-23T16:03:51.850Z,21.13
2019-03-23T16:06:20.784Z,21.30
2019-03-23T16:08:49.693Z,21.73
2019-03-23T16:11:18.571Z,18.73
2019-03-23T16:13:47.504Z,20.60
2019-03-23T16:16:26.940Z,21.97
2019-03-23T16:18:55.877Z,20.17
2019-03-23T16:21:24.817Z,20.77
2019-03-23T16:23:53.721Z,20.33
2019-03-23T16:26:22.654Z,19.23
2019-03-23T16:28:51.606Z,19.90
2019-03-23T16:31:20.528Z,19.97
2019-03-23T16:33:49.467Z,19.60
2019-03-23T16:36:18.370Z,18.13
2019-03-23T16:38:47.284Z,18.33
2019-03-23T16:41:16.261Z,17.43
2019-03-23T16:43:45.157Z,16.33
2019-03-23T16:46:14.066Z,16.73
2019-03-23T16:48:42.990Z,17.30
2019-03-23T16:51:11.892Z,15.73
2019-03-23T16:56:13.177Z,15.00
2019-03-23T16:58:42.087Z,14.37
2019-03-23T17:01:10.960Z,14.67
2019-03-23T17:03:39.893Z,14.93
2019-03-23T17:06:08.796Z,14.53
2019-03-23T17:08:37.690Z,14.80
2019-03-23T17:11:06.695Z,14.23
2019-03-23T17:13:35.569Z,14.37
2019-03-23T17:16:04.438Z,14.27
2019-03-23T17:18:34.914Z,14.63
2019-03-23T17:21:03.877Z,15.43
2019-03-23T17:23:32.753Z,14.00
2019-03-23T17:26:01.694Z,14.53
2019-03-23T17:28:30.611Z,14.00
2019-03-23T17:30:59.511Z,14.13
2019-03-23T17:33:28.442Z,13.93
2019-03-23T17:35:57.335Z,14.43
2019-03-23T17:38:26.235Z,13.53
2019-03-23T17:40:55.174Z,14.07
2019-03-23T17:43:24.545Z,13.27
2019-03-23T17:45:53.433Z,14.60
2019-03-23T17:48:22.372Z,15.00
2019-03-23T17:50:51.279Z,16.17
2019-03-23T17:53:20.167Z,16.10
2019-03-23T17:55:49.086Z,17.10
2019-03-23T17:58:17.991Z,16.37
2019-03-23T18:00:46.974Z,16.77
2019-03-23T18:03:15.924Z,17.83
2019-03-23T18:05:44.833Z,17.63
2019-03-23T18:08:13.734Z,18.63
2019-03-23T18:10:42.650Z,17.53
2019-03-23T18:13:16.568Z,18.27
2019-03-23T18:15:42.988Z,17.80
2019-03-23T18:18:11.902Z,16.87
2019-03-23T18:20:40.837Z,17.10
2019-03-23T18:23:09.725Z,18.20
2019-03-23T18:25:38.643Z,18.37
2019-03-23T18:28:07.548Z,17.60
2019-03-23T18:30:38.103Z,16.43
2019-03-23T18:33:07.038Z,17.40
2019-03-23T18:35:36.008Z,15.93
2019-03-23T18:38:05.012Z,16.17
2019-03-23T18:40:34.866Z,17.63
2019-03-23T18:43:03.860Z,16.97
2019-03-23T18:45:33.147Z,17.27
2019-03-23T18:48:02.076Z,15.20
2019-03-23T18:50:30.992Z,16.07
2019-03-23T18:52:59.887Z,16.20
2019-03-23T18:55:28.996Z,13.97
2019-03-23T18:57:58.789Z,14.60
2019-03-23T19:00:33.036Z,16.13
2019-03-23T19:03:02.601Z,16.07
2019-03-23T19:05:31.504Z,15.30
2019-03-23T19:08:00.402Z,15.77
2019-03-23T19:10:29.323Z,15.20
2019-03-23T19:12:58.255Z,15.40
2019-03-23T19:15:30.827Z,14.67
2019-03-23T19:17:59.831Z,15.73
2019-03-23T19:20:28.778Z,16.27
2019-03-23T19:22:57.728Z,16.10
2019-03-23T19:25:26.678Z,16.00
2019-03-23T19:27:55.543Z,15.20
2019-03-23T19:30:24.418Z,14.77
2019-03-23T19:32:53.350Z,16.10
2019-03-23T19:35:22.318Z,15.43
2019-03-23T19:37:51.220Z,15.97
2019-03-23T19:40:20.127Z,14.37
2019-03-23T19:42:50.984Z,14.20
2019-03-23T19:45:19.880Z,16.03
2019-03-23T19:47:48.916Z,15.97
2019-03-23T19:50:17.835Z,14.77
2019-03-23T19:52:46.737Z,15.40
2019-03-23T19:55:15.657Z,14.70
2019-03-23T19:57:44.551Z,15.50
2019-03-23T20:00:13.463Z,15.10
2019-03-23T20:02:42.515Z,15.53
2019-03-23T20:05:11.414Z,14.30
2019-03-23T20:07:40.286Z,14.70
2019-03-23T20:10:09.953Z,15.37
2019-03-23T20:12:38.867Z,13.67
2019-03-23T20:15:08.292Z,14.43
2019-03-23T20:17:40.910Z,15.97
2019-03-23T20:20:09.817Z,13.73
2019-03-23T20:22:38.710Z,14.03
2019-03-23T20:25:08.774Z,14.60
2019-03-23T20:27:37.675Z,13.73
2019-03-23T20:30:08.415Z,14.10
2019-03-23T20:32:37.437Z,14.07
2019-03-23T20:35:13.662Z,13.60
2019-03-23T20:37:42.603Z,12.80
2019-03-23T20:40:13.305Z,12.67
2019-03-23T20:42:43.755Z,12.70
2019-03-23T20:45:12.554Z,12.93
2019-03-23T20:47:41.479Z,11.83
2019-03-23T20:50:10.860Z,12.90
2019-03-23T20:52:41.835Z,12.57
2019-03-23T20:55:25.191Z,11.70
2019-03-23T20:57:54.543Z,11.80
2019-03-23T21:00:23.421Z,12.00
2019-03-23T21:02:52.328Z,11.90
2019-03-23T21:05:21.241Z,11.47
2019-03-23T21:07:50.130Z,11.87
2019-03-23T21:10:19.054Z,12.00
2019-03-23T21:12:47.946Z,10.67
2019-03-23T21:15:16.936Z,10.93
2019-03-23T21:17:51.435Z,10.47
2019-03-23T21:20:17.290Z,10.77
2019-03-23T21:22:46.177Z,10.30
2019-03-23T21:25:15.103Z,9.90
2019-03-23T21:27:43.987Z,10.93
2019-03-23T21:30:14.615Z,10.00
2019-03-23T21:32:43.539Z,10.13
2019-03-23T21:35:12.448Z,11.80
2019-03-23T21:37:41.339Z,9.27
2019-03-23T21:40:10.332Z,8.87
2019-03-23T21:42:40.130Z,9.63
2019-03-23T21:45:09.022Z,8.43
2019-03-23T21:47:37.936Z,8.83
2019-03-23T21:50:07.455Z,8.70
2019-03-23T21:52:36.361Z,8.43
2019-03-23T21:55:06.017Z,8.50
2019-03-23T21:57:35.103Z,7.97
2019-03-23T22:00:05.732Z,8.17
2019-03-23T22:02:34.703Z,7.90
2019-03-23T22:05:04.213Z,6.87
2019-03-23T22:07:33.136Z,7.43
2019-03-23T22:10:02.055Z,7.27
2019-03-23T22:12:30.949Z,7.57
2019-03-23T22:14:59.847Z,7.40
2019-03-23T22:17:28.774Z,6.40
2019-03-23T22:19:59.674Z,6.40
2019-03-23T22:22:28.560Z,7.07
2019-03-23T22:24:57.468Z,6.73
2019-03-23T22:27:26.366Z,6.60
2019-03-23T22:29:56.895Z,6.10
2019-03-23T22:32:25.803Z,6.60
2019-03-23T22:34:54.692Z,5.70
2019-03-23T22:37:23.594Z,5.33
2019-03-23T22:39:52.524Z,5.57
2019-03-23T22:42:21.407Z,5.20
2019-03-23T22:44:56.095Z,4.97
2019-03-23T22:47:24.999Z,5.30
2019-03-23T22:49:53.901Z,5.77
2019-03-23T22:52:22.785Z,4.77
2019-03-23T22:54:51.728Z,4.67
2019-03-23T22:57:20.642Z,4.50
2019-03-23T22:59:49.542Z,4.53
2019-03-23T23:02:18.476Z,4.20
2019-03-23T23:04:47.379Z,3.87
2019-03-23T23:07:16.345Z,3.50
2019-03-23T23:09:45.249Z,4.23
2019-03-23T23:12:14.146Z,3.40
2019-03-23T23:14:43.510Z,3.53
2019-03-23T23:17:12.509Z,3.77
2019-03-23T23:19:41.405Z,3.43
2019-03-23T23:22:10.451Z,3.23
2019-03-23T23:24:39.374Z,3.50
2019-03-23T23:27:08.277Z,3.10
2019-03-23T23:29:37.169Z,2.77
2019-03-23T23:32:06.122Z,2.80
2019-03-23T23:34:35.079Z,2.50
2019-03-23T23:37:03.979Z,2.77
2019-03-23T23:39:32.886Z,2.53
2019-03-23T23:42:01.769Z,2.37
2019-03-23T23:44:37.514Z,2.17
2019-03-23T23:47:06.411Z,1.87
2019-03-23T23:49:35.304Z,2.20
2019-03-23T23:52:04.253Z,2.37
2019-03-23T23:54:33.160Z,2.23
2019-03-23T23:57:02.176Z,1.83
2019-03-23T23:59:31.074Z,1.67
